sensor_id;sensor_type;location;lat;lon;timestamp;P1;durP1;ratioP1;P2;durP2;ratioP2
67712;SDS011;67640;55.784;49.138;2023-10-09T00:03:58;1.57;;;0.50;;
67712;SDS011;67640;55.784;49.138;2023-10-09T00:09:04;3.75;;;0.55;;
67712;SDS011;67640;55.784;49.138;2023-10-09T00:14:30;3.62;;;0.80;;
67712;SDS011;67640;55.784;49.138;2023-10-09T00:19:49;4.12;;;0.90;;
67712;SDS011;67640;55.784;49.138;2023-10-09T00:25:08;2.98;;;0.80;;
67712;SDS011;67640;55.784;49.138;2023-10-09T00:30:15;4.80;;;0.80;;
67712;SDS011;67640;55.784;49.138;2023-10-09T00:35:36;2.83;;;0.97;;
67712;SDS011;67640;55.784;49.138;2023-10-09T00:40:40;4.67;;;1.05;;
67712;SDS011;67640;55.784;49.138;2023-10-09T00:45:59;3.33;;;0.70;;
67712;SDS011;67640;55.784;49.138;2023-10-09T00:51:21;3.10;;;0.80;;
67712;SDS011;67640;55.784;49.138;2023-10-09T00:56:27;2.65;;;0.80;;
67712;SDS011;67640;55.784;49.138;2023-10-09T01:01:33;2.65;;;1.00;;
67712;SDS011;67640;55.784;49.138;2023-10-09T01:06:52;5.40;;;2.10;;
67712;SDS011;67640;55.784;49.138;2023-10-09T01:12:13;3.87;;;1.00;;
67712;SDS011;67640;55.784;49.138;2023-10-09T01:17:32;2.77;;;0.60;;
67712;SDS011;67640;55.784;49.138;2023-10-09T01:22:38;3.70;;;0.78;;
67712;SDS011;67640;55.784;49.138;2023-10-09T01:27:56;5.60;;;0.75;;
67712;SDS011;67640;55.784;49.138;2023-10-09T01:33:01;7.73;;;1.73;;
67712;SDS011;67640;55.784;49.138;2023-10-09T01:38:07;4.62;;;0.90;;
67712;SDS011;67640;55.784;49.138;2023-10-09T01:43:12;4.28;;;0.50;;
67712;SDS011;67640;55.784;49.138;2023-10-09T01:48:31;5.70;;;1.00;;
67712;SDS011;67640;55.784;49.138;2023-10-09T01:53:50;6.20;;;1.82;;
67712;SDS011;67640;55.784;49.138;2023-10-09T01:58:55;7.07;;;1.53;;
67712;SDS011;67640;55.784;49.138;2023-10-09T02:04:14;3.98;;;0.95;;
67712;SDS011;67640;55.784;49.138;2023-10-09T02:09:20;4.40;;;1.27;;
67712;SDS011;67640;55.784;49.138;2023-10-09T02:14:25;3.23;;;0.80;;
67712;SDS011;67640;55.784;49.138;2023-10-09T02:19:44;3.83;;;0.93;;
67712;SDS011;67640;55.784;49.138;2023-10-09T02:24:51;2.60;;;0.60;;
67712;SDS011;67640;55.784;49.138;2023-10-09T02:30:15;3.35;;;0.53;;
67712;SDS011;67640;55.784;49.138;2023-10-09T02:35:34;3.35;;;0.98;;
67712;SDS011;67640;55.784;49.138;2023-10-09T02:40:40;5.97;;;1.20;;
67712;SDS011;67640;55.784;49.138;2023-10-09T02:46:00;8.15;;;2.83;;
67712;SDS011;67640;55.784;49.138;2023-10-09T02:51:09;8.50;;;3.13;;
67712;SDS011;67640;55.784;49.138;2023-10-09T02:56:28;11.67;;;3.30;;
67712;SDS011;67640;55.784;49.138;2023-10-09T03:01:38;10.58;;;4.03;;
67712;SDS011;67640;55.784;49.138;2023-10-09T03:06:58;6.00;;;1.40;;
67712;SDS011;67640;55.784;49.138;2023-10-09T03:12:03;6.05;;;1.35;;
67712;SDS011;67640;55.784;49.138;2023-10-09T03:17:23;6.35;;;1.80;;
67712;SDS011;67640;55.784;49.138;2023-10-09T03:22:42;12.20;;;3.30;;
67712;SDS011;67640;55.784;49.138;2023-10-09T03:27:47;8.20;;;3.27;;
67712;SDS011;67640;55.784;49.138;2023-10-09T03:33:04;8.15;;;2.90;;
67712;SDS011;67640;55.784;49.138;2023-10-09T03:38:10;9.60;;;2.60;;
67712;SDS011;67640;55.784;49.138;2023-10-09T03:43:15;5.05;;;1.55;;
67712;SDS011;67640;55.784;49.138;2023-10-09T03:48:34;11.80;;;3.22;;
67712;SDS011;67640;55.784;49.138;2023-10-09T03:53:53;5.57;;;2.00;;
67712;SDS011;67640;55.784;49.138;2023-10-09T03:59:26;3.72;;;1.07;;
67712;SDS011;67640;55.784;49.138;2023-10-09T04:04:33;4.42;;;1.15;;
67712;SDS011;67640;55.784;49.138;2023-10-09T04:09:52;3.33;;;1.03;;
67712;SDS011;67640;55.784;49.138;2023-10-09T04:15:11;5.23;;;1.20;;
67712;SDS011;67640;55.784;49.138;2023-10-09T04:20:16;3.60;;;1.00;;
67712;SDS011;67640;55.784;49.138;2023-10-09T04:25:41;10.17;;;1.77;;
67712;SDS011;67640;55.784;49.138;2023-10-09T04:30:47;6.58;;;1.70;;
67712;SDS011;67640;55.784;49.138;2023-10-09T04:36:07;7.00;;;1.47;;
67712;SDS011;67640;55.784;49.138;2023-10-09T04:41:32;7.27;;;2.10;;
67712;SDS011;67640;55.784;49.138;2023-10-09T04:46:52;6.53;;;1.67;;
67712;SDS011;67640;55.784;49.138;2023-10-09T04:52:17;3.10;;;0.80;;
67712;SDS011;67640;55.784;49.138;2023-10-09T04:57:23;5.35;;;1.50;;
67712;SDS011;67640;55.784;49.138;2023-10-09T05:02:28;2.87;;;0.80;;
67712;SDS011;67640;55.784;49.138;2023-10-09T05:07:35;3.97;;;1.07;;
67712;SDS011;67640;55.784;49.138;2023-10-09T05:12:52;5.65;;;2.02;;
67712;SDS011;67640;55.784;49.138;2023-10-09T05:18:00;12.98;;;3.92;;
67712;SDS011;67640;55.784;49.138;2023-10-09T05:23:19;8.93;;;2.90;;
67712;SDS011;67640;55.784;49.138;2023-10-09T05:28:38;6.78;;;2.40;;
67712;SDS011;67640;55.784;49.138;2023-10-09T05:34:03;9.68;;;3.60;;
67712;SDS011;67640;55.784;49.138;2023-10-09T05:39:22;8.48;;;2.65;;
67712;SDS011;67640;55.784;49.138;2023-10-09T05:44:32;7.37;;;3.33;;
67712;SDS011;67640;55.784;49.138;2023-10-09T05:49:57;6.97;;;1.90;;
67712;SDS011;67640;55.784;49.138;2023-10-09T05:55:57;9.68;;;3.22;;
67712;SDS011;67640;55.784;49.138;2023-10-09T06:00:49;7.50;;;2.72;;
67712;SDS011;67640;55.784;49.138;2023-10-09T06:06:14;7.55;;;1.95;;
67712;SDS011;67640;55.784;49.138;2023-10-09T06:11:21;5.97;;;1.85;;
67712;SDS011;67640;55.784;49.138;2023-10-09T06:16:46;12.80;;;3.37;;
67712;SDS011;67640;55.784;49.138;2023-10-09T06:22:05;8.73;;;3.55;;
67712;SDS011;67640;55.784;49.138;2023-10-09T06:27:29;5.92;;;2.10;;
67712;SDS011;67640;55.784;49.138;2023-10-09T06:32:42;7.62;;;2.70;;
67712;SDS011;67640;55.784;49.138;2023-10-09T06:38:07;8.80;;;3.22;;
67712;SDS011;67640;55.784;49.138;2023-10-09T06:43:32;7.73;;;1.37;;
67712;SDS011;67640;55.784;49.138;2023-10-09T06:48:39;3.58;;;1.15;;
67712;SDS011;67640;55.784;49.138;2023-10-09T06:53:45;6.58;;;2.00;;
67712;SDS011;67640;55.784;49.138;2023-10-09T06:59:09;9.38;;;2.75;;
67712;SDS011;67640;55.784;49.138;2023-10-09T07:04:28;3.90;;;0.98;;
67712;SDS011;67640;55.784;49.138;2023-10-09T07:09:48;3.90;;;1.17;;
67712;SDS011;67640;55.784;49.138;2023-10-09T07:15:07;4.50;;;0.90;;
67712;SDS011;67640;55.784;49.138;2023-10-09T07:20:33;3.90;;;1.00;;
67712;SDS011;67640;55.784;49.138;2023-10-09T07:31:27;2.42;;;0.80;;
67712;SDS011;67640;55.784;49.138;2023-10-09T07:36:32;3.17;;;0.90;;
67712;SDS011;67640;55.784;49.138;2023-10-09T07:41:37;8.45;;;1.80;;
67712;SDS011;67640;55.784;49.138;2023-10-09T07:46:57;2.67;;;0.70;;
67712;SDS011;67640;55.784;49.138;2023-10-09T07:52:16;5.37;;;1.10;;
67712;SDS011;67640;55.784;49.138;2023-10-09T07:57:35;3.87;;;1.05;;
67712;SDS011;67640;55.784;49.138;2023-10-09T08:02:59;4.47;;;0.97;;
67712;SDS011;67640;55.784;49.138;2023-10-09T08:08:19;3.08;;;1.17;;
67712;SDS011;67640;55.784;49.138;2023-10-09T08:13:44;4.20;;;1.07;;
67712;SDS011;67640;55.784;49.138;2023-10-09T08:19:08;4.03;;;0.95;;
67712;SDS011;67640;55.784;49.138;2023-10-09T08:24:33;2.90;;;0.80;;
67712;SDS011;67640;55.784;49.138;2023-10-09T08:29:38;5.50;;;1.33;;
67712;SDS011;67640;55.784;49.138;2023-10-09T08:34:43;4.72;;;1.22;;
67712;SDS011;67640;55.784;49.138;2023-10-09T08:40:03;6.58;;;2.40;;
67712;SDS011;67640;55.784;49.138;2023-10-09T08:45:12;6.95;;;2.20;;
67712;SDS011;67640;55.784;49.138;2023-10-09T08:50:32;7.03;;;2.50;;
67712;SDS011;67640;55.784;49.138;2023-10-09T08:55:50;6.75;;;1.90;;
67712;SDS011;67640;55.784;49.138;2023-10-09T09:00:56;7.13;;;1.40;;
67712;SDS011;67640;55.784;49.138;2023-10-09T09:06:02;9.70;;;2.85;;
67712;SDS011;67640;55.784;49.138;2023-10-09T09:11:21;6.43;;;2.10;;
67712;SDS011;67640;55.784;49.138;2023-10-09T09:16:26;5.53;;;1.80;;
67712;SDS011;67640;55.784;49.138;2023-10-09T09:28:01;2.52;;;1.10;;
67712;SDS011;67640;55.784;49.138;2023-10-09T09:32:51;3.58;;;1.40;;
67712;SDS011;67640;55.784;49.138;2023-10-09T09:38:10;3.52;;;1.02;;
67712;SDS011;67640;55.784;49.138;2023-10-09T09:43:15;7.03;;;2.17;;
67712;SDS011;67640;55.784;49.138;2023-10-09T09:53:54;7.95;;;2.77;;
67712;SDS011;67640;55.784;49.138;2023-10-09T09:59:01;12.40;;;2.40;;
67712;SDS011;67640;55.784;49.138;2023-10-09T10:09:45;3.15;;;0.80;;
67712;SDS011;67640;55.784;49.138;2023-10-09T10:15:04;5.47;;;0.90;;
67712;SDS011;67640;55.784;49.138;2023-10-09T10:20:24;3.75;;;0.85;;
67712;SDS011;67640;55.784;49.138;2023-10-09T10:30:50;14.17;;;4.97;;
67712;SDS011;67640;55.784;49.138;2023-10-09T10:35:56;9.83;;;3.70;;
67712;SDS011;67640;55.784;49.138;2023-10-09T10:46:40;9.73;;;3.72;;
67712;SDS011;67640;55.784;49.138;2023-10-09T10:52:00;5.03;;;2.22;;
67712;SDS011;67640;55.784;49.138;2023-10-09T10:57:20;7.07;;;1.80;;
67712;SDS011;67640;55.784;49.138;2023-10-09T11:02:45;6.83;;;1.80;;
67712;SDS011;67640;55.784;49.138;2023-10-09T11:07:51;9.18;;;3.55;;
67712;SDS011;67640;55.784;49.138;2023-10-09T11:12:57;9.55;;;2.80;;
67712;SDS011;67640;55.784;49.138;2023-10-09T11:18:22;8.23;;;2.62;;
67712;SDS011;67640;55.784;49.138;2023-10-09T11:23:28;5.00;;;1.80;;
67712;SDS011;67640;55.784;49.138;2023-10-09T11:29:18;2.77;;;1.03;;
67712;SDS011;67640;55.784;49.138;2023-10-09T11:39:47;6.40;;;1.90;;
67712;SDS011;67640;55.784;49.138;2023-10-09T11:56:16;5.03;;;2.10;;
67712;SDS011;67640;55.784;49.138;2023-10-09T12:01:21;4.85;;;1.80;;
67712;SDS011;67640;55.784;49.138;2023-10-09T12:06:26;2.37;;;0.75;;
67712;SDS011;67640;55.784;49.138;2023-10-09T12:11:44;3.55;;;1.00;;
67712;SDS011;67640;55.784;49.138;2023-10-09T12:16:49;2.83;;;0.70;;
67712;SDS011;67640;55.784;49.138;2023-10-09T12:22:08;2.75;;;0.80;;
67712;SDS011;67640;55.784;49.138;2023-10-09T12:27:28;8.30;;;2.67;;
67712;SDS011;67640;55.784;49.138;2023-10-09T12:32:47;6.08;;;1.65;;
67712;SDS011;67640;55.784;49.138;2023-10-09T12:38:06;4.58;;;1.30;;
67712;SDS011;67640;55.784;49.138;2023-10-09T12:43:12;2.33;;;0.70;;
67712;SDS011;67640;55.784;49.138;2023-10-09T12:48:19;3.35;;;0.62;;
67712;SDS011;67640;55.784;49.138;2023-10-09T12:53:37;1.87;;;0.50;;
67712;SDS011;67640;55.784;49.138;2023-10-09T12:58:43;5.13;;;1.20;;
67712;SDS011;67640;55.784;49.138;2023-10-09T13:03:55;9.35;;;3.12;;
67712;SDS011;67640;55.784;49.138;2023-10-09T13:09:13;7.53;;;0.80;;
67712;SDS011;67640;55.784;49.138;2023-10-09T13:14:18;3.57;;;0.70;;
67712;SDS011;67640;55.784;49.138;2023-10-09T13:19:37;2.67;;;0.70;;
67712;SDS011;67640;55.784;49.138;2023-10-09T13:24:43;2.30;;;0.60;;
67712;SDS011;67640;55.784;49.138;2023-10-09T13:30:02;5.53;;;0.63;;
67712;SDS011;67640;55.784;49.138;2023-10-09T13:35:22;3.80;;;0.70;;
67712;SDS011;67640;55.784;49.138;2023-10-09T13:40:27;2.33;;;0.60;;
67712;SDS011;67640;55.784;49.138;2023-10-09T13:45:38;5.90;;;1.02;;
67712;SDS011;67640;55.784;49.138;2023-10-09T13:50:57;2.22;;;0.82;;
67712;SDS011;67640;55.784;49.138;2023-10-09T13:56:25;2.12;;;0.57;;
67712;SDS011;67640;55.784;49.138;2023-10-09T14:01:30;9.90;;;1.10;;
67712;SDS011;67640;55.784;49.138;2023-10-09T14:06:35;3.67;;;0.68;;
67712;SDS011;67640;55.784;49.138;2023-10-09T14:11:55;1.97;;;0.60;;
67712;SDS011;67640;55.784;49.138;2023-10-09T14:17:14;1.95;;;0.65;;
67712;SDS011;67640;55.784;49.138;2023-10-09T14:22:32;4.95;;;0.70;;
67712;SDS011;67640;55.784;49.138;2023-10-09T14:27:38;2.43;;;0.73;;
67712;SDS011;67640;55.784;49.138;2023-10-09T14:32:57;2.40;;;0.50;;
67712;SDS011;67640;55.784;49.138;2023-10-09T14:38:17;2.45;;;0.57;;
67712;SDS011;67640;55.784;49.138;2023-10-09T14:43:36;3.47;;;0.73;;
67712;SDS011;67640;55.784;49.138;2023-10-09T14:48:55;11.43;;;1.20;;
67712;SDS011;67640;55.784;49.138;2023-10-09T14:54:00;7.50;;;1.03;;
67712;SDS011;67640;55.784;49.138;2023-10-09T14:59:05;3.35;;;0.60;;
67712;SDS011;67640;55.784;49.138;2023-10-09T15:04:24;4.58;;;0.65;;
67712;SDS011;67640;55.784;49.138;2023-10-09T15:09:29;7.20;;;0.70;;
67712;SDS011;67640;55.784;49.138;2023-10-09T15:14:48;5.83;;;0.60;;
67712;SDS011;67640;55.784;49.138;2023-10-09T15:20:08;2.90;;;0.80;;
67712;SDS011;67640;55.784;49.138;2023-10-09T15:25:28;3.67;;;0.77;;
67712;SDS011;67640;55.784;49.138;2023-10-09T15:30:33;2.35;;;0.50;;
67712;SDS011;67640;55.784;49.138;2023-10-09T15:35:52;2.17;;;0.80;;
67712;SDS011;67640;55.784;49.138;2023-10-09T15:41:12;3.42;;;0.90;;
67712;SDS011;67640;55.784;49.138;2023-10-09T15:46:31;6.87;;;1.70;;
67712;SDS011;67640;55.784;49.138;2023-10-09T15:51:50;3.87;;;1.17;;
67712;SDS011;67640;55.784;49.138;2023-10-09T15:56:55;4.00;;;1.02;;
67712;SDS011;67640;55.784;49.138;2023-10-09T16:02:00;4.05;;;0.68;;
67712;SDS011;67640;55.784;49.138;2023-10-09T16:07:19;5.58;;;0.70;;
67712;SDS011;67640;55.784;49.138;2023-10-09T16:12:39;3.02;;;0.70;;
67712;SDS011;67640;55.784;49.138;2023-10-09T16:17:59;4.50;;;0.90;;
67712;SDS011;67640;55.784;49.138;2023-10-09T16:23:06;2.10;;;0.60;;
67712;SDS011;67640;55.784;49.138;2023-10-09T16:28:24;3.95;;;1.30;;
67712;SDS011;67640;55.784;49.138;2023-10-09T16:33:29;3.53;;;0.80;;
67712;SDS011;67640;55.784;49.138;2023-10-09T16:38:35;2.17;;;0.68;;
67712;SDS011;67640;55.784;49.138;2023-10-09T16:43:54;3.72;;;0.70;;
67712;SDS011;67640;55.784;49.138;2023-10-09T16:49:13;2.87;;;1.00;;
67712;SDS011;67640;55.784;49.138;2023-10-09T16:54:32;3.67;;;1.00;;
67712;SDS011;67640;55.784;49.138;2023-10-09T16:59:38;6.43;;;1.50;;
67712;SDS011;67640;55.784;49.138;2023-10-09T17:04:44;5.65;;;1.87;;
67712;SDS011;67640;55.784;49.138;2023-10-09T17:10:04;9.00;;;3.05;;
67712;SDS011;67640;55.784;49.138;2023-10-09T17:15:23;11.27;;;2.50;;
67712;SDS011;67640;55.784;49.138;2023-10-09T17:20:43;5.83;;;2.25;;
67712;SDS011;67640;55.784;49.138;2023-10-09T17:25:48;2.90;;;1.15;;
67712;SDS011;67640;55.784;49.138;2023-10-09T17:31:07;2.60;;;0.80;;
67712;SDS011;67640;55.784;49.138;2023-10-09T17:36:26;2.80;;;0.98;;
67712;SDS011;67640;55.784;49.138;2023-10-09T17:41:46;3.83;;;1.07;;
67712;SDS011;67640;55.784;49.138;2023-10-09T17:46:51;6.35;;;1.10;;
67712;SDS011;67640;55.784;49.138;2023-10-09T17:51:57;3.67;;;0.80;;
67712;SDS011;67640;55.784;49.138;2023-10-09T17:57:14;3.15;;;1.20;;
67712;SDS011;67640;55.784;49.138;2023-10-09T18:02:19;7.23;;;2.00;;
67712;SDS011;67640;55.784;49.138;2023-10-09T18:07:38;5.05;;;1.12;;
67712;SDS011;67640;55.784;49.138;2023-10-09T18:12:57;4.50;;;1.30;;
67712;SDS011;67640;55.784;49.138;2023-10-09T18:18:17;4.70;;;1.27;;
67712;SDS011;67640;55.784;49.138;2023-10-09T18:23:36;4.72;;;1.75;;
67712;SDS011;67640;55.784;49.138;2023-10-09T18:28:42;3.93;;;1.20;;
67712;SDS011;67640;55.784;49.138;2023-10-09T18:33:48;3.15;;;1.20;;
67712;SDS011;67640;55.784;49.138;2023-10-09T18:39:08;2.85;;;1.00;;
67712;SDS011;67640;55.784;49.138;2023-10-09T18:44:13;2.60;;;0.90;;
67712;SDS011;67640;55.784;49.138;2023-10-09T18:49:18;4.75;;;1.77;;
67712;SDS011;67640;55.784;49.138;2023-10-09T18:54:37;2.85;;;1.05;;
67712;SDS011;67640;55.784;49.138;2023-10-09T18:59:56;4.30;;;1.20;;
67712;SDS011;67640;55.784;49.138;2023-10-09T19:05:16;3.45;;;1.30;;
67712;SDS011;67640;55.784;49.138;2023-10-09T19:10:23;3.87;;;1.23;;
67712;SDS011;67640;55.784;49.138;2023-10-09T19:15:28;4.65;;;1.57;;
67712;SDS011;67640;55.784;49.138;2023-10-09T19:20:43;6.80;;;2.47;;
67712;SDS011;67640;55.784;49.138;2023-10-09T19:26:02;13.22;;;3.30;;
67712;SDS011;67640;55.784;49.138;2023-10-09T19:31:22;10.60;;;3.87;;
67712;SDS011;67640;55.784;49.138;2023-10-09T19:36:41;9.30;;;3.90;;
67712;SDS011;67640;55.784;49.138;2023-10-09T19:41:46;4.95;;;1.55;;
67712;SDS011;67640;55.784;49.138;2023-10-09T19:46:51;8.80;;;2.47;;
67712;SDS011;67640;55.784;49.138;2023-10-09T19:51:56;5.42;;;2.17;;
67712;SDS011;67640;55.784;49.138;2023-10-09T19:57:15;3.37;;;1.20;;
67712;SDS011;67640;55.784;49.138;2023-10-09T20:02:45;4.37;;;1.20;;
67712;SDS011;67640;55.784;49.138;2023-10-09T20:07:50;4.53;;;1.03;;
67712;SDS011;67640;55.784;49.138;2023-10-09T20:13:09;3.08;;;1.00;;
67712;SDS011;67640;55.784;49.138;2023-10-09T20:18:29;3.50;;;1.13;;
67712;SDS011;67640;55.784;49.138;2023-10-09T20:23:48;4.10;;;1.00;;
67712;SDS011;67640;55.784;49.138;2023-10-09T20:34:28;3.55;;;1.12;;
67712;SDS011;67640;55.784;49.138;2023-10-09T20:39:34;2.40;;;1.02;;
67712;SDS011;67640;55.784;49.138;2023-10-09T20:44:39;3.20;;;1.20;;
67712;SDS011;67640;55.784;49.138;2023-10-09T20:49:56;2.67;;;1.07;;
67712;SDS011;67640;55.784;49.138;2023-10-09T20:55:01;3.40;;;1.00;;
67712;SDS011;67640;55.784;49.138;2023-10-09T21:00:07;3.65;;;1.30;;
67712;SDS011;67640;55.784;49.138;2023-10-09T21:10:34;3.93;;;1.10;;
67712;SDS011;67640;55.784;49.138;2023-10-09T21:15:40;3.17;;;1.20;;
67712;SDS011;67640;55.784;49.138;2023-10-09T21:20:45;3.55;;;1.37;;
67712;SDS011;67640;55.784;49.138;2023-10-09T21:26:04;2.80;;;1.20;;
67712;SDS011;67640;55.784;49.138;2023-10-09T21:31:24;2.95;;;1.10;;
67712;SDS011;67640;55.784;49.138;2023-10-09T21:36:43;2.80;;;1.30;;
67712;SDS011;67640;55.784;49.138;2023-10-09T21:41:48;5.08;;;1.30;;
67712;SDS011;67640;55.784;49.138;2023-10-09T21:46:54;3.15;;;1.10;;
67712;SDS011;67640;55.784;49.138;2023-10-09T21:52:11;3.70;;;1.40;;
67712;SDS011;67640;55.784;49.138;2023-10-09T21:57:16;4.17;;;1.20;;
67712;SDS011;67640;55.784;49.138;2023-10-09T22:02:21;3.67;;;1.42;;
67712;SDS011;67640;55.784;49.138;2023-10-09T22:07:40;3.87;;;1.40;;
67712;SDS011;67640;55.784;49.138;2023-10-09T22:12:46;3.22;;;1.22;;
67712;SDS011;67640;55.784;49.138;2023-10-09T22:18:08;3.43;;;1.03;;
67712;SDS011;67640;55.784;49.138;2023-10-09T22:23:15;4.12;;;1.42;;
67712;SDS011;67640;55.784;49.138;2023-10-09T22:28:35;3.72;;;1.20;;
67712;SDS011;67640;55.784;49.138;2023-10-09T22:33:41;2.80;;;1.30;;
67712;SDS011;67640;55.784;49.138;2023-10-09T22:39:05;2.90;;;1.00;;
67712;SDS011;67640;55.784;49.138;2023-10-09T22:44:11;3.22;;;0.88;;
67712;SDS011;67640;55.784;49.138;2023-10-09T22:49:19;2.47;;;0.80;;
67712;SDS011;67640;55.784;49.138;2023-10-09T22:54:44;2.80;;;1.20;;
67712;SDS011;67640;55.784;49.138;2023-10-09T23:00:03;2.83;;;1.00;;
67712;SDS011;67640;55.784;49.138;2023-10-09T23:05:23;2.92;;;1.02;;
67712;SDS011;67640;55.784;49.138;2023-10-09T23:10:43;2.00;;;0.80;;
67712;SDS011;67640;55.784;49.138;2023-10-09T23:15:53;2.00;;;0.73;;
67712;SDS011;67640;55.784;49.138;2023-10-09T23:21:10;2.10;;;0.70;;
67712;SDS011;67640;55.784;49.138;2023-10-09T23:26:35;1.62;;;0.62;;
67712;SDS011;67640;55.784;49.138;2023-10-09T23:31:41;1.77;;;0.60;;
67712;SDS011;67640;55.784;49.138;2023-10-09T23:37:00;3.30;;;0.65;;
67712;SDS011;67640;55.784;49.138;2023-10-09T23:42:20;2.33;;;0.50;;
67712;SDS011;67640;55.784;49.138;2023-10-09T23:47:38;1.70;;;0.30;;
67712;SDS011;67640;55.784;49.138;2023-10-09T23:52:43;1.20;;;0.30;;
67712;SDS011;67640;55.784;49.138;2023-10-09T23:57:48;0.77;;;0.23;;
